メインページ
METAR-TAF:

METAR-TAF

空港 :

パリチャールズ・ドゴール, フランス

パリ=シャルル・ド・ゴール空港

緯度: 49-01N, 経度: 002-32E, 海抜: 118m

現時点の気象観測

当レポートは28分前の05:30(UTC)に作成
西の風 4kt
気温 11°C
湿度 94%
気圧 1025 hPa
視程10km以上
1,500メートル以下は雲なし、積乱雲なし

METAR: LFPG 200530Z 26004KT CAVOK 11/10 Q1025 NOSIG

時間: 07:58 (05:58 UTC)

予報

当レポートは58分前の05:00(UTC)に作成
予報は20日の 06時(UTC)から 21日の 12時(UTC)まで有効
西の風 4kt
視程10km以上
1,500メートル以下は雲なし、積乱雲なし
20日の 19時(UTC)から 20日の 22時(UTC)まで一時的に
変向風 2kt
21日の 06時(UTC)から 21日の 09時(UTC)まで徐々に
高度3500ftの曇り

TAF: LFPG 200500Z 2006/2112 26004KT CAVOK TEMPO 2019/2022 VRB02KT BECMG 2106/2109 OVC035 TX23/2112Z TN10/2006Z

4,000以上の空港の気象観測と天気予報(METAR報とTAF報)

利用可能な観測所は地図上に黄色い丸と赤い丸で示す。

丸の上にカーソルを重ねると観測所名を参照できる。

次にクリックすると気象観測と天気予報を参照できる。

マップの切り替え:黒色「×」印の緑ボタンをクリックして拡大、「-」印の緑ボタンをクリックして縮小、緑色の三角印をクリックして隣りの地図に切り替え


METAR-TAF: